Flugplatz Donzdorf

Für EDPM sind keine METAR/TAF Berichte vorhanden.
Es werden die Flugwettermeldungen vom Flugplatz Stuttgart in 45 km Entfernung angezeigt.

Bericht für EDDS

vom 28.02. um 03:20 UTC

Wind 12 kt aus 270°

Sichtweite 10 km oder mehr

aufgelockert bewölkt in 3300 ft

aufgebrochene Bewölkung in 4700 ft

Temperatur 2.0°C

Taupunkt -2.0°C

Luftfeuchtigkeit 75%

Luftdruck 1015 hPa

EDDS 280320Z 27012KT 9999 SCT033 BKN047 02/M02 Q1015 R25/290294

Prognose für EDDS

vom 27.02. um 00:00 UTC

Zwischen 00:00 UTC und 00:00 UTC

Wind 20 kt aus 290° in Böen 30 kt

Sichtweite 10 km oder mehr

aufgebrochene Bewölkung in 3000 ft


Zwischen 00:00 und 00:00 UTC übergehend zu

Wind 15 kt aus 270° in Böen 25 kt

Sichtweite 10 km oder mehr

aufgebrochene Bewölkung in 3000 ft


Zwischen 00:00 und 00:00 UTC übergehend zu

Wind 8 kt aus 260°

Sichtweite 10 km oder mehr

aufgebrochene Bewölkung in 3000 ft


Zwischen 00:00 und 00:00 UTC übergehend zu

Wind 7 kt aus 190°

Sichtweite 10 km oder mehr

aufgebrochene Bewölkung in 3000 ft


Zwischen 00:00 UTC und 00:00 UTC zeitweise mit einer Wahrscheinlichkeit von 30%

Regen

TAF EDDS 272300Z 2800/2824 29020G30KT 9999 BKN030 BECMG 2800/2802 27015G25KT BECMG 2803/2805 26008KT BECMG 2815/2817 19007KT PROB30 TEMPO 2821/2824 RA
Impressum